Observation data for Levelland on 08/12/2019      Previous  Date  Next       Current Mesonet Observations  Soil Data  Daily Summary Page  Observations in Plain Language
KLD1 120500Z 11007KT 23/14 A3003 RMK A01 T02290142  RH  061%=      5-min Rain = 0
KLD1 120505Z 10006KT 23/14 A3003 RMK A01 T02300142  RH  060%=      5-min Rain = 0
KLD1 120510Z 10006KT 23/14 A3003 RMK A01 T02290143  RH  061%=      5-min Rain = 0
KLD1 120515Z 09005KT 23/14 A3003 RMK A01 T02280143  RH  061%=      5-min Rain = 0
KLD1 120520Z 10006KT 23/14 A3003 RMK A01 T02260143  RH  062%=      5-min Rain = 0
KLD1 120525Z 10006KT 23/14 A3003 RMK A01 T02270143  RH  062%=      5-min Rain = 0
KLD1 120530Z 09006KT 23/14 A3003 RMK A01 T02260144  RH  062%=      5-min Rain = 0
KLD1 120535Z 09007KT 23/14 A3003 RMK A01 T02250144  RH  063%=      5-min Rain = 0
KLD1 120540Z 09006KT 22/14 A3003 RMK A01 T02240144  RH  063%=      5-min Rain = 0
KLD1 120545Z 09006KT 22/14 A3003 RMK A01 T02220144  RH  064%=      5-min Rain = 0
KLD1 120550Z 09007KT 22/14 A3003 RMK A01 T02220144  RH  064%=      5-min Rain = 0
KLD1 120555Z 08007KT 22/14 A3003 RMK A01 T02220144  RH  064%=      5-min Rain = 0
KLD1 120600Z 09005KT 22/15 A3004 RMK A01 T02200145  RH  065%=      5-min Rain = 0
KLD1 120605Z 08004KT 22/15 A3004 RMK A01 T02220145  RH  064%=      5-min Rain = 0
KLD1 120610Z 09004KT 22/15 A3004 RMK A01 T02230145  RH  064%=      5-min Rain = 0
KLD1 120615Z 05002KT 23/14 A3004 RMK A01 T02260144  RH  063%=      5-min Rain = 0
KLD1 120620Z 29009KT 22/15 A3005 RMK A01 T02240145  RH  064%=      5-min Rain = 0
KLD1 120625Z 32006G12KT 23/14 A3005 RMK A01 T02260143  RH  062%=      5-min Rain = 0
KLD1 120630Z 36004KT 24/14 A3004 RMK A01 T02350142  RH  058%=      5-min Rain = 0
KLD1 120635Z 31008KT 23/14 A3005 RMK A01 T02330141  RH  059%=      5-min Rain = 0
KLD1 120640Z 32005KT 23/14 A3004 RMK A01 T02260142  RH  061%=      5-min Rain = 0
KLD1 120645Z 00005KT 23/14 A3004 RMK A01 T02260143  RH  062%=      5-min Rain = 0
KLD1 120650Z 33006KT 22/14 A3004 RMK A01 T02240143  RH  063%=      5-min Rain = 0
KLD1 120655Z 34006KT 22/14 A3003 RMK A01 T02190143  RH  065%=      5-min Rain = 0
KLD1 120700Z 01005KT 22/14 A3003 RMK A01 T02220144  RH  064%=      5-min Rain = 0
KLD1 120705Z 36005KT 22/14 A3003 RMK A01 T02230144  RH  064%=      5-min Rain = 0
KLD1 120710Z 27006KT 22/14 A3003 RMK A01 T02200144  RH  065%=      5-min Rain = 0
KLD1 120715Z 35006KT 22/14 A3003 RMK A01 T02230143  RH  063%=      5-min Rain = 0
KLD1 120720Z 28006G12KT 22/14 A3003 RMK A01 T02240143  RH  063%=      5-min Rain = 0
KLD1 120725Z 32004KT 23/14 A3003 RMK A01 T02310142  RH  060%=      5-min Rain = 0
KLD1 120730Z 34004KT 23/14 A3003 RMK A01 T02280142  RH  061%=      5-min Rain = 0
KLD1 120735Z 36005KT 23/14 A3003 RMK A01 T02270142  RH  061%=      5-min Rain = 0
KLD1 120740Z 34004KT 23/14 A3002 RMK A01 T02260142  RH  062%=      5-min Rain = 0
KLD1 120745Z 35003KT 22/14 A3002 RMK A01 T02210142  RH  064%=      5-min Rain = 0
KLD1 120750Z 34003KT 22/14 A3002 RMK A01 T02180142  RH  065%=      5-min Rain = 0
KLD1 120755Z 34003KT 22/14 A3002 RMK A01 T02160142  RH  066%=      5-min Rain = 0
KLD1 120800Z 01004KT 22/14 A3002 RMK A01 T02160143  RH  066%=      5-min Rain = 0
KLD1 120805Z 03003KT 22/14 A3002 RMK A01 T02160144  RH  066%=      5-min Rain = 0
KLD1 120810Z 03000KT 22/14 A3002 RMK A01 T02150144  RH  067%=      5-min Rain = 0
KLD1 120815Z 36002KT 22/15 A3002 RMK A01 T02150145  RH  067%=      5-min Rain = 0
KLD1 120820Z 00003KT 21/14 A3002 RMK A01 T02140143  RH  067%=      5-min Rain = 0
KLD1 120825Z 36001KT 21/14 A3002 RMK A01 T02140142  RH  066%=      5-min Rain = 0
KLD1 120830Z 03002KT 22/14 A3002 RMK A01 T02170143  RH  065%=      5-min Rain = 0
KLD1 120835Z 06000KT 22/14 A3001 RMK A01 T02160143  RH  066%=      5-min Rain = 0
KLD1 120840Z 07002KT 22/14 A3001 RMK A01 T02170143  RH  065%=      5-min Rain = 0
KLD1 120845Z 08002KT 22/15 A3001 RMK A01 T02170145  RH  066%=      5-min Rain = 0
KLD1 120850Z 09002KT 22/15 A3001 RMK A01 T02150145  RH  067%=      5-min Rain = 0
KLD1 120855Z 09003KT 22/14 A3001 RMK A01 T02170144  RH  066%=      5-min Rain = 0
KLD1 120900Z 10003KT 22/15 A3001 RMK A01 T02160145  RH  067%=      5-min Rain = 0
KLD1 120905Z 10003KT 22/15 A3001 RMK A01 T02150145  RH  067%=      5-min Rain = 0
KLD1 120910Z 10003KT 22/15 A3001 RMK A01 T02150145  RH  067%=      5-min Rain = 0
KLD1 120915Z 09003KT 22/15 A3001 RMK A01 T02150145  RH  067%=      5-min Rain = 0
KLD1 120920Z 10003KT 22/15 A3001 RMK A01 T02150145  RH  067%=      5-min Rain = 0
KLD1 120925Z 11003KT 21/15 A3001 RMK A01 T02140145  RH  068%=      5-min Rain = 0
KLD1 120930Z 10004KT 21/15 A3001 RMK A01 T02130145  RH  068%=      5-min Rain = 0
KLD1 120935Z 10004KT 21/15 A3001 RMK A01 T02130145  RH  068%=      5-min Rain = 0
KLD1 120940Z 11004KT 21/15 A3001 RMK A01 T02130145  RH  068%=      5-min Rain = 0
KLD1 120945Z 12004KT 21/15 A3001 RMK A01 T02110145  RH  069%=      5-min Rain = 0
KLD1 120950Z 12004KT 21/15 A3001 RMK A01 T02100146  RH  070%=      5-min Rain = 0
KLD1 120955Z 12006KT 21/15 A3001 RMK A01 T02100147  RH  070%=      5-min Rain = 0
KLD1 121000Z 12006KT 21/15 A3001 RMK A01 T02100147  RH  070%=      5-min Rain = 0
KLD1 121005Z 12007KT 21/15 A3001 RMK A01 T02110146  RH  069%=      5-min Rain = 0
KLD1 121010Z 12007KT 21/15 A3001 RMK A01 T02110145  RH  069%=      5-min Rain = 0
KLD1 121015Z 12007KT 21/15 A3001 RMK A01 T02120145  RH  069%=      5-min Rain = 0
KLD1 121020Z 12007KT 21/15 A3001 RMK A01 T02120145  RH  069%=      5-min Rain = 0
KLD1 121025Z 12008KT 21/14 A3001 RMK A01 T02130144  RH  068%=      5-min Rain = 0
KLD1 121030Z 12007KT 22/14 A3001 RMK A01 T02150144  RH  067%=      5-min Rain = 0
KLD1 121035Z 13005KT 22/14 A3001 RMK A01 T02150144  RH  067%=      5-min Rain = 0
KLD1 121040Z 13005KT 21/15 A3001 RMK A01 T02140145  RH  068%=      5-min Rain = 0
KLD1 121045Z 13005KT 21/15 A3001 RMK A01 T02120145  RH  068%=      5-min Rain = 0
KLD1 121050Z 13006KT 21/15 A3001 RMK A01 T02100145  RH  069%=      5-min Rain = 0
KLD1 121055Z 13006KT 21/15 A3001 RMK A01 T02110145  RH  069%=      5-min Rain = 0
KLD1 121100Z 13005KT 21/15 A3001 RMK A01 T02110145  RH  069%=      5-min Rain = 0
KLD1 121105Z 14005KT 21/15 A3001 RMK A01 T02090145  RH  069%=      5-min Rain = 0
KLD1 121110Z 14005KT 21/15 A3001 RMK A01 T02070145  RH  071%=      5-min Rain = 0
KLD1 121115Z 14006KT 21/15 A3001 RMK A01 T02050146  RH  072%=      5-min Rain = 0
KLD1 121120Z 14006KT 20/15 A3001 RMK A01 T02040146  RH  072%=      5-min Rain = 0
KLD1 121125Z 14006KT 20/15 A3001 RMK A01 T02030146  RH  073%=      5-min Rain = 0
KLD1 121130Z 14007KT 20/15 A3001 RMK A01 T02040145  RH  072%=      5-min Rain = 0
KLD1 121135Z 14007KT 20/15 A3001 RMK A01 T02040146  RH  072%=      5-min Rain = 0
KLD1 121140Z 14007KT 20/15 A3001 RMK A01 T02030146  RH  073%=      5-min Rain = 0
KLD1 121145Z 15007KT 20/15 A3001 RMK A01 T02020146  RH  073%=      5-min Rain = 0
KLD1 121150Z 15007KT 20/15 A3002 RMK A01 T02030146  RH  073%=      5-min Rain = 0
KLD1 121155Z 15006KT 20/15 A3002 RMK A01 T02030145  RH  072%=      5-min Rain = 0
KLD1 121200Z 14006KT 20/15 A3002 RMK A01 T02040145  RH  072%=      5-min Rain = 0
KLD1 121205Z 14005KT 20/15 A3002 RMK A01 T02030145  RH  072%=      5-min Rain = 0
KLD1 121210Z 14005KT 20/14 A3002 RMK A01 T02040144  RH  071%=      5-min Rain = 0
KLD1 121215Z 14005KT 21/14 A3002 RMK A01 T02050144  RH  071%=      5-min Rain = 0
KLD1 121220Z 14005KT 21/14 A3002 RMK A01 T02050144  RH  071%=      5-min Rain = 0
KLD1 121225Z 14005KT 21/15 A3002 RMK A01 T02050146  RH  072%=      5-min Rain = 0
KLD1 121230Z 14006KT 21/15 A3002 RMK A01 T02050146  RH  072%=      5-min Rain = 0
KLD1 121235Z 15006KT 21/15 A3002 RMK A01 T02060147  RH  072%=      5-min Rain = 0
KLD1 121240Z 15005KT 21/15 A3002 RMK A01 T02070149  RH  072%=      5-min Rain = 0
KLD1 121245Z 15004KT 21/15 A3002 RMK A01 T02090150  RH  072%=      5-min Rain = 0
KLD1 121250Z 16004KT 21/15 A3003 RMK A01 T02120151  RH  071%=      5-min Rain = 0
KLD1 121255Z 16004KT 22/15 A3003 RMK A01 T02150150  RH  069%=      5-min Rain = 0
KLD1 121300Z 16004KT 22/15 A3003 RMK A01 T02200150  RH  067%=      5-min Rain = 0
KLD1 121305Z 17004KT 22/15 A3003 RMK A01 T02220150  RH  067%=      5-min Rain = 0
KLD1 121310Z 17004KT 22/15 A3003 RMK A01 T02240152  RH  066%=      5-min Rain = 0
KLD1 121315Z 17004KT 23/16 A3003 RMK A01 T02270156  RH  067%=      5-min Rain = 0
KLD1 121320Z 16004KT 23/16 A3003 RMK A01 T02310158  RH  066%=      5-min Rain = 0
KLD1 121325Z 16005KT 24/15 A3003 RMK A01 T02350154  RH  063%=      5-min Rain = 0
KLD1 121330Z 16005KT 24/16 A3003 RMK A01 T02380155  RH  062%=      5-min Rain = 0
KLD1 121335Z 16005KT 24/15 A3003 RMK A01 T02400154  RH  061%=      5-min Rain = 0
KLD1 121340Z 16005KT 24/15 A3003 RMK A01 T02430154  RH  060%=      5-min Rain = 0
KLD1 121345Z 16006KT 25/16 A3003 RMK A01 T02450155  RH  060%=      5-min Rain = 0
KLD1 121350Z 16005KT 25/16 A3003 RMK A01 T02470157  RH  060%=      5-min Rain = 0
KLD1 121355Z 17005KT 25/16 A3003 RMK A01 T02510159  RH  059%=      5-min Rain = 0
KLD1 121400Z 18006KT 25/16 A3003 RMK A01 T02540160  RH  059%=      5-min Rain = 0
KLD1 121405Z 17007KT 26/16 A3003 RMK A01 T02550160  RH  058%=      5-min Rain = 0
KLD1 121410Z 17008KT 26/16 A3003 RMK A01 T02590161  RH  057%=      5-min Rain = 0
KLD1 121415Z 18008KT 26/16 A3003 RMK A01 T02630162  RH  056%=      5-min Rain = 0
KLD1 121420Z 18008KT 26/16 A3003 RMK A01 T02640161  RH  056%=      5-min Rain = 0
KLD1 121425Z 18006KT 27/17 A3003 RMK A01 T02690166  RH  056%=      5-min Rain = 0
KLD1 121430Z 19008KT 27/16 A3003 RMK A01 T02710163  RH  054%=      5-min Rain = 0
KLD1 121435Z 19010G15KT 27/16 A3003 RMK A01 T02740159  RH  052%=      5-min Rain = 0
KLD1 121440Z 19008G13KT 28/16 A3003 RMK A01 T02760162  RH  052%=      5-min Rain = 0
KLD1 121445Z 20011KT 28/16 A3002 RMK A01 T02790157  RH  050%=      5-min Rain = 0
KLD1 121450Z 20010KT 28/16 A3002 RMK A01 T02810159  RH  050%=      5-min Rain = 0
KLD1 121455Z 20012KT 28/16 A3002 RMK A01 T02820157  RH  049%=      5-min Rain = 0
KLD1 121500Z 19014KT 28/15 A3002 RMK A01 T02820153  RH  047%=      5-min Rain = 0
KLD1 121505Z 19012KT 28/16 A3002 RMK A01 T02830155  RH  048%=      5-min Rain = 0
KLD1 121510Z 20010KT 29/16 A3002 RMK A01 T02880159  RH  048%=      5-min Rain = 0
KLD1 121515Z 20012KT 29/16 A3002 RMK A01 T02890156  RH  047%=      5-min Rain = 0
KLD1 121520Z 19011KT 29/16 A3002 RMK A01 T02900157  RH  047%=      5-min Rain = 0
KLD1 121525Z 20010KT 29/16 A3002 RMK A01 T02920159  RH  047%=      5-min Rain = 0
KLD1 121530Z 20011KT 29/16 A3002 RMK A01 T02940160  RH  047%=      5-min Rain = 0
KLD1 121535Z 20010KT 30/16 A3002 RMK A01 T02970159  RH  045%=      5-min Rain = 0
KLD1 121540Z 20010KT 30/16 A3002 RMK A01 T03000161  RH  045%=      5-min Rain = 0
KLD1 121545Z 19011KT 30/16 A3002 RMK A01 T02990159  RH  045%=      5-min Rain = 0
KLD1 121550Z 20010KT 30/16 A3002 RMK A01 T03010159  RH  044%=      5-min Rain = 0
KLD1 121555Z 19010KT 30/16 A3002 RMK A01 T03010161  RH  045%=      5-min Rain = 0
KLD1 121600Z 19010KT 30/16 A3002 RMK A01 T03040163  RH  045%=      5-min Rain = 0
KLD1 121605Z 19009KT 31/16 A3002 RMK A01 T03070163  RH  044%=      5-min Rain = 0
KLD1 121610Z 21009KT 31/16 A3002 RMK A01 T03100161  RH  043%=      5-min Rain = 0
KLD1 121615Z 21008KT 31/16 A3002 RMK A01 T03130160  RH  042%=      5-min Rain = 0
KLD1 121620Z 20008KT 32/16 A3002 RMK A01 T03150160  RH  041%=      5-min Rain = 0
KLD1 121625Z 19009KT 31/16 A3002 RMK A01 T03130159  RH  042%=      5-min Rain = 0
KLD1 121630Z 19008KT 32/16 A3002 RMK A01 T03170158  RH  040%=      5-min Rain = 0
KLD1 121635Z 20008KT 32/16 A3002 RMK A01 T03220161  RH  040%=      5-min Rain = 0
KLD1 121640Z 20007KT 32/16 A3002 RMK A01 T03210156  RH  039%=      5-min Rain = 0
KLD1 121645Z 22006KT 33/16 A3002 RMK A01 T03260159  RH  038%=      5-min Rain = 0
KLD1 121650Z 23007KT 33/15 A3002 RMK A01 T03250150  RH  036%=      5-min Rain = 0
KLD1 121655Z 22007KT 33/15 A3002 RMK A01 T03250152  RH  037%=      5-min Rain = 0
KLD1 121700Z 21007KT 33/16 A3002 RMK A01 T03290155  RH  037%=      5-min Rain = 0
KLD1 121705Z 22007KT 33/15 A3001 RMK A01 T03310154  RH  036%=      5-min Rain = 0
KLD1 121710Z 21005KT 34/16 A3001 RMK A01 T03350160  RH  037%=      5-min Rain = 0
KLD1 121715Z 21007KT 34/15 A3001 RMK A01 T03360154  RH  035%=      5-min Rain = 0
KLD1 121720Z 21007KT 34/15 A3001 RMK A01 T03370151  RH  034%=      5-min Rain = 0
KLD1 121725Z 20007KT 33/15 A3001 RMK A01 T03340149  RH  034%=      5-min Rain = 0
KLD1 121730Z 20007KT 34/15 A3001 RMK A01 T03370150  RH  034%=      5-min Rain = 0
KLD1 121735Z 22007KT 34/15 A3001 RMK A01 T03390151  RH  034%=      5-min Rain = 0
KLD1 121740Z 20008KT 34/15 A30 RMK A01 T03400152  RH  034%=      5-min Rain = 0
KLD1 121745Z 21007KT 34/15 A30 RMK A01 T03390146  RH  033%=      5-min Rain = 0
KLD1 121750Z 21006G11KT 34/15 A30 RMK A01 T03400145  RH  032%=      5-min Rain = 0
KLD1 121755Z 20006G11KT 34/15 A30 RMK A01 T03410152  RH  034%=      5-min Rain = 0
KLD1 121800Z 23009KT 35/14 A30 RMK A01 T03460143  RH  031%=      5-min Rain = 0
KLD1 121805Z 23009G14KT 35/14 A30 RMK A01 T03480142  RH  030%=      5-min Rain = 0
KLD1 121810Z 21008KT 35/15 A30 RMK A01 T03510150  RH  032%=      5-min Rain = 0
KLD1 121815Z 19006G12KT 35/15 A2999 RMK A01 T03480150  RH  032%=      5-min Rain = 0
KLD1 121820Z 17007G12KT 35/14 A2999 RMK A01 T03470144  RH  031%=      5-min Rain = 0
KLD1 121825Z 22007KT 35/14 A2999 RMK A01 T03470141  RH  030%=      5-min Rain = 0
KLD1 121830Z 21007KT 35/14 A2999 RMK A01 T03470142  RH  030%=      5-min Rain = 0
KLD1 121835Z 20007KT 35/14 A2999 RMK A01 T03500140  RH  030%=      5-min Rain = 0
KLD1 121840Z 20008KT 35/14 A2999 RMK A01 T03490141  RH  030%=      5-min Rain = 0
KLD1 121845Z 24007KT 35/13 A2999 RMK A01 T03510131  RH  028%=      5-min Rain = 0
KLD1 121850Z 21007G13KT 36/14 A2999 RMK A01 T03550138  RH  028%=      5-min Rain = 0
KLD1 121855Z 21007G13KT 36/14 A2999 RMK A01 T03550140  RH  029%=      5-min Rain = 0
KLD1 121900Z 20008KT 36/14 A2998 RMK A01 T03550136  RH  028%=      5-min Rain = 0
KLD1 121905Z 21009KT 36/14 A2998 RMK A01 T03550138  RH  029%=      5-min Rain = 0
KLD1 121910Z 22006KT 36/14 A2998 RMK A01 T03560137  RH  028%=      5-min Rain = 0
KLD1 121915Z 21007KT 36/14 A2998 RMK A01 T03550141  RH  029%=      5-min Rain = 0
KLD1 121920Z 20008KT 36/14 A2998 RMK A01 T03590141  RH  029%=      5-min Rain = 0
KLD1 121925Z 17005KT 36/13 A2998 RMK A01 T03570134  RH  027%=      5-min Rain = 0
KLD1 121930Z 22007KT 36/14 A2998 RMK A01 T03600138  RH  028%=      5-min Rain = 0
KLD1 121935Z 20011G16KT 36/14 A2998 RMK A01 T03620143  RH  028%=      5-min Rain = 0
KLD1 121940Z 21010G16KT 36/14 A2998 RMK A01 T03610144  RH  029%=      5-min Rain = 0
KLD1 121945Z 19007KT 36/14 A2997 RMK A01 T03620135  RH  027%=      5-min Rain = 0
KLD1 121950Z 19007G12KT 36/14 A2997 RMK A01 T03600139  RH  028%=      5-min Rain = 0
KLD1 121955Z 19008G23KT 36/13 A2997 RMK A01 T03630134  RH  027%=      5-min Rain = 0
KLD1 122000Z 18010KT 36/14 A2997 RMK A01 T03640142  RH  028%=      5-min Rain = 0
KLD1 122005Z 17010G17KT 36/14 A2997 RMK A01 T03630139  RH  027%=      5-min Rain = 0
KLD1 122010Z 19008G14KT 37/13 A2997 RMK A01 T03660133  RH  026%=      5-min Rain = 0
KLD1 122015Z 18009KT 36/13 A2997 RMK A01 T03600132  RH  027%=      5-min Rain = 0
KLD1 122020Z 18010KT 36/14 A2996 RMK A01 T03580136  RH  028%=      5-min Rain = 0
KLD1 122025Z 19009G14KT 35/13 A2996 RMK A01 T03540127  RH  026%=      5-min Rain = 0
KLD1 122030Z 18010KT 36/14 A2996 RMK A01 T03600137  RH  028%=      5-min Rain = 0
KLD1 122035Z 19009KT 35/14 A2996 RMK A01 T03480140  RH  030%=      5-min Rain = 0
KLD1 122040Z 19010G15KT 35/14 A2995 RMK A01 T03510140  RH  030%=      5-min Rain = 0
KLD1 122045Z 15008G13KT 36/14 A2995 RMK A01 T03600136  RH  027%=      5-min Rain = 0
KLD1 122050Z 16007KT 35/14 A2995 RMK A01 T03540142  RH  029%=      5-min Rain = 0
KLD1 122055Z 19008KT 36/15 A2995 RMK A01 T03620152  RH  030%=      5-min Rain = 0
KLD1 122100Z 22008G13KT 36/15 A2995 RMK A01 T03620147  RH  029%=      5-min Rain = 0
KLD1 122105Z 18009KT 35/15 A2995 RMK A01 T03470147  RH  032%=      5-min Rain = 0
KLD1 122110Z 17007KT 35/14 A2994 RMK A01 T03450144  RH  031%=      5-min Rain = 0
KLD1 122115Z 18005KT 36/14 A2994 RMK A01 T03570141  RH  029%=      5-min Rain = 0
KLD1 122120Z 21008KT 37/14 A2994 RMK A01 T03650142  RH  028%=      5-min Rain = 0
KLD1 122125Z 21007KT 37/14 A2994 RMK A01 T03690140  RH  027%=      5-min Rain = 0
KLD1 122130Z 20004KT 37/14 A2993 RMK A01 T03690137  RH  026%=      5-min Rain = 0
KLD1 122135Z 23008KT 36/14 A2993 RMK A01 T03620141  RH  028%=      5-min Rain = 0
KLD1 122140Z 23009KT 35/14 A2993 RMK A01 T03520141  RH  030%=      5-min Rain = 0
KLD1 122145Z 23007KT 36/14 A2993 RMK A01 T03630144  RH  028%=      5-min Rain = 0
KLD1 122150Z 19004KT 37/14 A2993 RMK A01 T03720137  RH  026%=      5-min Rain = 0
KLD1 122155Z 23009G16KT 37/14 A2992 RMK A01 T03690141  RH  027%=      5-min Rain = 0
KLD1 122200Z 24009KT 36/13 A2992 RMK A01 T03580133  RH  027%=      5-min Rain = 0
KLD1 122205Z 21007KT 35/14 A2993 RMK A01 T03510140  RH  030%=      5-min Rain = 0
KLD1 122210Z 21005KT 36/15 A2992 RMK A01 T03550148  RH  031%=      5-min Rain = 0
KLD1 122215Z 19006G11KT 37/14 A2992 RMK A01 T03670136  RH  026%=      5-min Rain = 0
KLD1 122220Z 21008G13KT 37/14 A2992 RMK A01 T03720143  RH  027%=      5-min Rain = 0
KLD1 122225Z 18005KT 37/14 A2992 RMK A01 T03700144  RH  027%=      5-min Rain = 0
KLD1 122230Z 20007KT 37/14 A2992 RMK A01 T03690142  RH  027%=      5-min Rain = 0
KLD1 122235Z 22008KT 37/14 A2992 RMK A01 T03710144  RH  027%=      5-min Rain = 0
KLD1 122240Z 22008KT 37/14 A2991 RMK A01 T03700143  RH  027%=      5-min Rain = 0
KLD1 122245Z 23009KT 37/13 A2991 RMK A01 T03680132  RH  025%=      5-min Rain = 0
KLD1 122250Z 21007KT 37/14 A2991 RMK A01 T03690137  RH  026%=      5-min Rain = 0
KLD1 122255Z 20009KT 37/14 A2991 RMK A01 T03670141  RH  027%=      5-min Rain = 0
KLD1 122300Z 22010KT 37/14 A2991 RMK A01 T03670136  RH  026%=      5-min Rain = 0
KLD1 122305Z 23008KT 37/13 A2991 RMK A01 T03660127  RH  025%=      5-min Rain = 0
KLD1 122310Z 23005KT 37/13 A2991 RMK A01 T03680130  RH  025%=      5-min Rain = 0
KLD1 122315Z 21006KT 37/14 A299 RMK A01 T03670138  RH  027%=      5-min Rain = 0
KLD1 122320Z 21009KT 37/13 A299 RMK A01 T03680133  RH  026%=      5-min Rain = 0
KLD1 122325Z 21010KT 37/13 A299 RMK A01 T03660132  RH  026%=      5-min Rain = 0
KLD1 122330Z 23009KT 37/13 A299 RMK A01 T03650126  RH  025%=      5-min Rain = 0
KLD1 122335Z 24011KT 36/12 A299 RMK A01 T03640122  RH  024%=      5-min Rain = 0
KLD1 122340Z 23009KT 36/12 A299 RMK A01 T03630121  RH  024%=      5-min Rain = 0
KLD1 122345Z 23007KT 36/13 A299 RMK A01 T03640129  RH  025%=      5-min Rain = 0
KLD1 122350Z 23006KT 36/13 A299 RMK A01 T03600132  RH  027%=      5-min Rain = 0
KLD1 122355Z 22006KT 36/13 A299 RMK A01 T03590133  RH  027%=      5-min Rain = 0
KLD1 130000Z 21008KT 36/13 A299 RMK A01 T03570132  RH  027%=      5-min Rain = 0
KLD1 130005Z 22009KT 36/12 A299 RMK A01 T03580117  RH  024%=      5-min Rain = 0
KLD1 130010Z 23008KT 36/12 A2989 RMK A01 T03570122  RH  025%=      5-min Rain = 0
KLD1 130015Z 22009KT 36/12 A299 RMK A01 T03550123  RH  026%=      5-min Rain = 0
KLD1 130020Z 23009KT 35/12 A2989 RMK A01 T03520124  RH  026%=      5-min Rain = 0
KLD1 130025Z 23008KT 35/12 A299 RMK A01 T03520121  RH  026%=      5-min Rain = 0
KLD1 130030Z 23008KT 35/12 A299 RMK A01 T03500123  RH  026%=      5-min Rain = 0
KLD1 130035Z 23007KT 35/13 A299 RMK A01 T03470127  RH  027%=      5-min Rain = 0
KLD1 130040Z 22006KT 34/13 A299 RMK A01 T03440133  RH  029%=      5-min Rain = 0
KLD1 130045Z 22006KT 34/13 A299 RMK A01 T03430131  RH  029%=      5-min Rain = 0
KLD1 130050Z 23005KT 34/13 A299 RMK A01 T03400133  RH  030%=      5-min Rain = 0
KLD1 130055Z 23005KT 34/14 A299 RMK A01 T03390137  RH  031%=      5-min Rain = 0
KLD1 130100Z 24006KT 34/14 A2991 RMK A01 T03390139  RH  031%=      5-min Rain = 0
KLD1 130105Z 24005KT 34/14 A2991 RMK A01 T03380139  RH  031%=      5-min Rain = 0
KLD1 130110Z 25005KT 34/14 A2991 RMK A01 T03370140  RH  032%=      5-min Rain = 0
KLD1 130115Z 25004KT 34/14 A2991 RMK A01 T03360141  RH  032%=      5-min Rain = 0
KLD1 130120Z 26003KT 33/14 A2991 RMK A01 T03330143  RH  033%=      5-min Rain = 0
KLD1 130125Z 26004KT 33/15 A2991 RMK A01 T03290145  RH  034%=      5-min Rain = 0
KLD1 130130Z 27004KT 32/14 A2991 RMK A01 T03230144  RH  035%=      5-min Rain = 0
KLD1 130135Z 28005KT 31/14 A2991 RMK A01 T03140142  RH  037%=      5-min Rain = 0
KLD1 130140Z 29004KT 31/14 A2992 RMK A01 T03070144  RH  039%=      5-min Rain = 0
KLD1 130145Z 28004KT 30/15 A2992 RMK A01 T03030148  RH  041%=      5-min Rain = 0
KLD1 130150Z 28005KT 30/15 A2992 RMK A01 T03020148  RH  041%=      5-min Rain = 0
KLD1 130155Z 28006KT 30/14 A2992 RMK A01 T03020143  RH  040%=      5-min Rain = 0
KLD1 130200Z 28005KT 30/14 A2992 RMK A01 T03010140  RH  039%=      5-min Rain = 0
KLD1 130205Z 28004KT 30/14 A2992 RMK A01 T02960143  RH  041%=      5-min Rain = 0
KLD1 130210Z 28004KT 29/15 A2992 RMK A01 T02920146  RH  043%=      5-min Rain = 0
KLD1 130215Z 28004KT 29/15 A2992 RMK A01 T02910147  RH  043%=      5-min Rain = 0
KLD1 130220Z 28004KT 28/16 A2993 RMK A01 T02840157  RH  048%=      5-min Rain = 0
KLD1 130225Z 28004KT 28/16 A2993 RMK A01 T02810156  RH  049%=      5-min Rain = 0
KLD1 130230Z 28003KT 29/15 A2993 RMK A01 T02850146  RH  045%=      5-min Rain = 0
KLD1 130235Z 28003KT 29/14 A2993 RMK A01 T02870141  RH  043%=      5-min Rain = 0
KLD1 130240Z 28004KT 28/15 A2994 RMK A01 T02840150  RH  046%=      5-min Rain = 0
KLD1 130245Z 28005KT 28/15 A2994 RMK A01 T02780145  RH  046%=      5-min Rain = 0
KLD1 130250Z 29004KT 28/14 A2994 RMK A01 T02780143  RH  045%=      5-min Rain = 0
KLD1 130255Z 29005KT 27/15 A2994 RMK A01 T02740146  RH  047%=      5-min Rain = 0
KLD1 130300Z 28005KT 27/15 A2994 RMK A01 T02710145  RH  048%=      5-min Rain = 0
KLD1 130305Z 28006KT 27/15 A2995 RMK A01 T02670145  RH  049%=      5-min Rain = 0
KLD1 130310Z 29006KT 26/14 A2995 RMK A01 T02630143  RH  050%=      5-min Rain = 0
KLD1 130315Z 29007KT 26/14 A2995 RMK A01 T02610143  RH  050%=      5-min Rain = 0
KLD1 130320Z 30007KT 26/14 A2995 RMK A01 T02610142  RH  050%=      5-min Rain = 0
KLD1 130325Z 30007KT 26/14 A2995 RMK A01 T02590141  RH  050%=      5-min Rain = 0
KLD1 130330Z 31006KT 26/14 A2995 RMK A01 T02570139  RH  050%=      5-min Rain = 0
KLD1 130335Z 31007KT 25/14 A2995 RMK A01 T02540140  RH  051%=      5-min Rain = 0
KLD1 130340Z 31006KT 25/14 A2995 RMK A01 T02530141  RH  052%=      5-min Rain = 0
KLD1 130345Z 31006KT 25/14 A2996 RMK A01 T02540142  RH  052%=      5-min Rain = 0
KLD1 130350Z 33006KT 26/14 A2996 RMK A01 T02550141  RH  052%=      5-min Rain = 0
KLD1 130355Z 33006KT 26/14 A2996 RMK A01 T02550142  RH  052%=      5-min Rain = 0
KLD1 130400Z 33006KT 26/14 A2996 RMK A01 T02550143  RH  052%=      5-min Rain = 0
KLD1 130405Z 32005KT 26/14 A2996 RMK A01 T02550144  RH  053%=      5-min Rain = 0
KLD1 130410Z 33005KT 26/15 A2996 RMK A01 T02600146  RH  052%=      5-min Rain = 0
KLD1 130415Z 34004KT 26/15 A2996 RMK A01 T02610146  RH  051%=      5-min Rain = 0
KLD1 130420Z 35004KT 26/15 A2996 RMK A01 T02610147  RH  051%=      5-min Rain = 0
KLD1 130425Z 35005KT 26/15 A2996 RMK A01 T02630148  RH  052%=      5-min Rain = 0
KLD1 130430Z 34005KT 26/15 A2996 RMK A01 T02610149  RH  052%=      5-min Rain = 0
KLD1 130435Z 32005KT 26/15 A2996 RMK A01 T02590150  RH  053%=      5-min Rain = 0
KLD1 130440Z 30007KT 25/15 A2996 RMK A01 T02520149  RH  055%=      5-min Rain = 0
KLD1 130445Z 31004KT 25/15 A2996 RMK A01 T02510149  RH  056%=      5-min Rain = 0
KLD1 130450Z 33004KT 25/15 A2996 RMK A01 T02520150  RH  056%=      5-min Rain = 0
KLD1 130455Z 33005KT 26/15 A2996 RMK A01 T02560152  RH  055%=      5-min Rain = 0

Page generated in 0.0154 seconds.